createdAt,value
2022-10-06T06:35:50.280Z,10.84
2022-10-06T06:38:28.417Z,10.74
2022-10-06T06:51:50.120Z,10.74
2022-10-06T06:54:57.282Z,10.82
2022-10-06T06:58:47.422Z,10.91
2022-10-06T07:00:43.740Z,10.99
2022-10-06T07:03:57.168Z,11.08
2022-10-06T07:09:58.479Z,11.42
2022-10-06T07:52:46.894Z,12.12
2022-10-06T07:56:06.260Z,12.10
2022-10-06T07:58:58.869Z,12.12
2022-10-06T08:01:35.608Z,12.18
2022-10-06T08:04:07.080Z,12.20
2022-10-06T08:06:39.560Z,12.24
2022-10-06T08:09:10.715Z,12.30
2022-10-06T08:11:38.845Z,12.49
2022-10-06T08:14:08.318Z,12.52
2022-10-06T08:16:36.765Z,12.51
2022-10-06T08:19:18.268Z,12.50
2022-10-06T08:21:58.961Z,12.55
2022-10-06T08:24:54.129Z,12.61
2022-10-06T08:27:24.339Z,12.66
2022-10-06T08:29:55.927Z,12.63
2022-10-06T08:32:32.248Z,12.55
2022-10-06T08:35:00.980Z,12.47
2022-10-06T08:37:31.503Z,12.41
2022-10-06T08:40:04.063Z,12.36
2022-10-06T08:42:44.774Z,12.34
2022-10-06T08:45:38.986Z,12.33
2022-10-06T08:48:33.044Z,12.30
2022-10-06T08:52:22.860Z,12.27
2022-10-06T08:55:14.349Z,12.30
2022-10-06T08:58:48.655Z,12.29
2022-10-06T09:01:55.961Z,12.26
2022-10-06T09:04:37.832Z,12.32
2022-10-06T09:07:18.803Z,12.45
2022-10-06T09:10:16.600Z,12.71
2022-10-06T09:12:56.214Z,13.02
2022-10-06T09:15:39.485Z,13.25
2022-10-06T09:18:22.481Z,13.33
2022-10-06T09:25:31.952Z,13.38
2022-10-06T09:28:30.659Z,13.67
2022-10-06T09:31:57.819Z,14.04
2022-10-06T09:41:59.285Z,14.63
2022-10-06T09:44:34.335Z,14.57
2022-10-06T09:47:33.790Z,14.54
2022-10-06T09:50:30.815Z,14.57
2022-10-06T09:53:26.180Z,14.72
2022-10-06T09:56:07.080Z,14.86
2022-10-06T09:58:41.438Z,14.88
2022-10-06T10:01:29.321Z,15.07
2022-10-06T10:04:30.450Z,14.98
2022-10-06T10:07:25.164Z,14.65
2022-10-06T15:04:02.368Z,18.22
2022-10-06T15:06:49.824Z,18.07
2022-10-06T15:09:17.898Z,18.10
2022-10-06T15:11:46.118Z,18.11
2022-10-06T15:14:19.291Z,18.06
2022-10-06T15:17:03.595Z,18.23
2022-10-06T15:19:34.369Z,18.42
2022-10-06T15:22:05.240Z,18.51
2022-10-06T15:24:38.938Z,18.56
2022-10-06T15:27:25.471Z,18.62
2022-10-06T15:29:58.293Z,18.78
2022-10-06T15:32:29.304Z,18.90
2022-10-06T15:35:01.983Z,19.01
2022-10-06T15:37:33.092Z,19.03
2022-10-06T15:40:07.646Z,18.96
2022-10-06T15:42:41.002Z,18.78
2022-10-06T15:45:12.440Z,18.65
2022-10-06T15:47:44.433Z,18.57
2022-10-06T15:50:21.762Z,18.36
2022-10-06T15:52:50.193Z,18.22
2022-10-06T15:55:21.875Z,18.07
2022-10-06T15:57:53.104Z,18.00
2022-10-06T16:00:23.929Z,18.11
2022-10-06T16:02:52.206Z,18.04
2022-10-06T16:05:50.173Z,18.12
2022-10-06T16:08:24.911Z,18.12
2022-10-06T16:10:53.227Z,18.14
2022-10-06T16:13:21.366Z,18.19
2022-10-06T16:15:54.401Z,18.03
2022-10-06T16:18:24.310Z,17.86
2022-10-06T16:21:01.179Z,17.73
2022-10-06T16:23:32.471Z,17.63
2022-10-06T16:26:10.185Z,17.57
2022-10-06T16:28:45.542Z,17.58
2022-10-06T16:31:17.447Z,17.55
2022-10-06T16:33:48.681Z,17.40
2022-10-06T16:36:22.028Z,17.32
2022-10-06T16:39:01.835Z,17.19
2022-10-06T16:41:35.048Z,16.92
2022-10-06T16:44:03.299Z,16.70
2022-10-06T16:46:35.860Z,16.55
2022-10-06T16:49:12.854Z,16.49
2022-10-06T16:51:45.895Z,16.49
2022-10-06T16:54:15.596Z,16.47
2022-10-06T16:56:45.261Z,16.55
2022-10-06T16:59:15.780Z,16.62
2022-10-06T17:01:44.692Z,16.74
2022-10-06T17:04:16.303Z,16.73
2022-10-06T17:06:52.824Z,16.63
2022-10-06T17:09:22.796Z,16.47
2022-10-06T17:11:53.240Z,16.26
2022-10-06T17:14:22.097Z,16.07
2022-10-06T17:16:51.877Z,15.93
2022-10-06T17:19:21.715Z,15.84
2022-10-06T17:21:57.378Z,15.81
2022-10-06T17:24:32.047Z,15.81
2022-10-06T17:27:01.195Z,15.80
2022-10-06T17:29:29.321Z,15.72
2022-10-06T17:32:01.629Z,15.66
2022-10-06T17:34:32.802Z,15.56
2022-10-06T17:37:14.411Z,15.46
2022-10-06T17:39:47.131Z,15.34
2022-10-06T17:42:22.778Z,15.23
2022-10-06T17:44:52.692Z,15.12
2022-10-06T17:47:23.948Z,15.03
2022-10-06T17:49:56.883Z,14.96
2022-10-06T17:52:26.399Z,14.94
2022-10-06T17:54:59.800Z,14.96
2022-10-06T17:57:30.498Z,15.04
2022-10-06T18:00:01.681Z,15.08
2022-10-06T18:02:31.705Z,15.11
2022-10-06T18:05:02.196Z,15.12
2022-10-06T18:07:31.990Z,15.12
2022-10-06T18:10:17.369Z,15.11
2022-10-06T18:12:51.039Z,15.13
2022-10-06T18:15:29.591Z,15.18
2022-10-06T18:17:59.666Z,15.20
2022-10-06T18:20:31.014Z,15.22
2022-10-06T18:23:04.380Z,15.22
2022-10-06T18:25:38.458Z,15.21
2022-10-06T18:28:06.869Z,15.16
2022-10-06T18:30:35.272Z,15.14
2022-10-06T18:36:14.652Z,15.14
2022-10-06T18:38:55.215Z,15.09
2022-10-06T18:41:25.168Z,15.06
2022-10-06T18:43:56.198Z,14.94
2022-10-06T18:46:44.032Z,14.80
2022-10-06T18:49:18.027Z,14.66
2022-10-06T18:51:48.830Z,14.55
2022-10-06T18:54:24.078Z,14.45
2022-10-06T18:56:53.859Z,14.40
2022-10-06T18:59:26.565Z,14.36
2022-10-06T19:02:01.004Z,14.36
2022-10-06T19:04:31.844Z,14.37
2022-10-06T19:07:09.833Z,14.36
2022-10-06T19:09:45.238Z,14.39
2022-10-06T19:12:20.538Z,14.42
2022-10-06T19:14:55.041Z,14.46
2022-10-06T19:17:28.274Z,14.49
2022-10-06T19:19:57.306Z,14.48
2022-10-06T19:22:25.664Z,14.41
2022-10-06T19:24:56.648Z,14.34
2022-10-06T19:27:25.620Z,14.25
2022-10-06T19:29:59.000Z,14.19
2022-10-06T19:32:32.273Z,14.14
2022-10-06T19:35:06.499Z,14.09
2022-10-06T19:37:37.598Z,14.04
2022-10-06T19:40:12.353Z,13.99
2022-10-06T19:42:48.967Z,13.96
2022-10-06T19:45:21.104Z,13.92
2022-10-06T19:47:51.532Z,13.90
2022-10-06T19:50:25.264Z,13.88
2022-10-06T19:52:53.431Z,13.83
2022-10-06T19:55:24.862Z,13.80
2022-10-06T19:57:53.641Z,13.78
2022-10-06T20:00:23.910Z,13.75
2022-10-06T20:03:08.474Z,13.74
2022-10-06T20:05:41.718Z,13.76
2022-10-06T20:08:16.080Z,13.75
2022-10-06T20:14:24.607Z,13.72
2022-10-06T20:17:01.224Z,13.75
2022-10-06T20:19:32.590Z,13.81
2022-10-06T20:22:01.136Z,13.88
2022-10-06T20:24:36.981Z,13.86
2022-10-06T20:27:09.111Z,13.81
2022-10-06T20:29:45.358Z,13.78
2022-10-06T20:32:15.890Z,13.75
2022-10-06T20:34:51.136Z,13.73
2022-10-06T20:37:24.246Z,13.74
2022-10-06T20:40:13.296Z,13.75
2022-10-06T20:42:45.640Z,13.73
2022-10-06T20:45:21.452Z,13.68
2022-10-06T20:47:52.292Z,13.66
2022-10-06T20:50:20.785Z,13.64
2022-10-06T20:52:56.616Z,13.62
2022-10-06T20:55:29.083Z,13.60
2022-10-06T20:58:02.791Z,13.63
2022-10-06T21:00:31.015Z,13.66
2022-10-06T21:02:59.232Z,13.66
2022-10-06T21:05:36.806Z,13.63
2022-10-06T21:08:08.320Z,13.58
2022-10-06T21:10:47.056Z,13.57
2022-10-06T21:13:17.750Z,13.54
2022-10-06T21:15:46.555Z,13.54
2022-10-06T21:18:15.067Z,13.52
2022-10-06T21:20:45.334Z,13.52
2022-10-06T21:23:19.499Z,13.55
2022-10-06T21:25:49.751Z,13.57
2022-10-06T21:28:21.796Z,13.55
2022-10-06T21:30:53.869Z,13.58
2022-10-06T21:33:24.226Z,13.58
2022-10-06T21:36:03.325Z,13.58
2022-10-06T21:38:32.306Z,13.57
2022-10-06T21:41:27.767Z,13.51
2022-10-06T21:44:00.429Z,13.45
2022-10-06T21:46:31.423Z,13.41
2022-10-06T21:49:04.320Z,13.37
2022-10-06T21:51:39.513Z,13.35
2022-10-06T21:54:10.165Z,13.34
2022-10-06T21:56:44.643Z,13.31
2022-10-06T21:59:18.116Z,13.29
2022-10-06T22:01:53.182Z,13.26
2022-10-06T22:04:27.950Z,13.23
2022-10-06T22:07:01.831Z,13.24
2022-10-06T22:09:34.289Z,13.24
2022-10-06T22:12:09.636Z,13.21
2022-10-06T22:14:42.554Z,13.23
2022-10-06T22:17:14.136Z,13.23
2022-10-06T22:19:44.329Z,13.21
2022-10-06T22:22:16.864Z,13.19
2022-10-06T22:24:48.112Z,13.21
2022-10-06T22:27:16.163Z,13.19
2022-10-06T22:29:49.518Z,13.15
2022-10-06T22:32:23.553Z,13.12
2022-10-06T22:34:54.935Z,13.06
2022-10-06T22:37:26.116Z,13.03
2022-10-06T22:40:06.649Z,13.01
2022-10-06T22:42:36.186Z,13.00
2022-10-06T22:45:20.443Z,12.98
2022-10-06T22:47:48.655Z,12.98
2022-10-06T22:50:18.106Z,13.00
2022-10-06T22:52:53.276Z,13.02
2022-10-06T22:55:26.458Z,13.00
2022-10-06T22:57:56.645Z,13.00
2022-10-06T23:00:29.245Z,13.00
2022-10-06T23:03:09.514Z,12.99
2022-10-06T23:05:39.359Z,12.96
2022-10-06T23:08:23.229Z,12.97
2022-10-06T23:10:52.455Z,12.93
2022-10-06T23:13:28.010Z,12.89
2022-10-06T23:16:08.421Z,12.92
2022-10-06T23:18:40.795Z,12.93
2022-10-06T23:21:10.628Z,12.93
2022-10-06T23:23:40.390Z,12.93
2022-10-06T23:26:16.876Z,12.95
2022-10-06T23:28:49.949Z,13.02
2022-10-06T23:31:19.746Z,13.04
2022-10-06T23:33:51.268Z,13.04
2022-10-06T23:36:22.146Z,13.02
2022-10-06T23:38:52.188Z,13.02
2022-10-06T23:41:20.722Z,13.03
2022-10-06T23:43:51.795Z,13.07
2022-10-06T23:46:24.382Z,13.17
2022-10-06T23:48:52.761Z,13.27
2022-10-06T23:51:26.316Z,13.34
2022-10-06T23:53:57.153Z,13.33
2022-10-06T23:56:36.103Z,13.29
2022-10-06T23:59:04.713Z,13.24
